sensor_id;sensor_type;location;lat;lon;timestamp;temperature;humidity
8332;DHT22;4203;48.144;14.118;2023-04-15T00:01:45;5.40;99.90
8332;DHT22;4203;48.144;14.118;2023-04-15T00:04:14;5.40;99.90
8332;DHT22;4203;48.144;14.118;2023-04-15T00:06:41;5.40;99.90
8332;DHT22;4203;48.144;14.118;2023-04-15T00:09:08;5.40;99.90
8332;DHT22;4203;48.144;14.118;2023-04-15T00:11:37;5.40;99.90
8332;DHT22;4203;48.144;14.118;2023-04-15T00:14:04;5.40;99.90
8332;DHT22;4203;48.144;14.118;2023-04-15T00:16:32;5.40;99.90
8332;DHT22;4203;48.144;14.118;2023-04-15T00:18:59;5.40;99.90
8332;DHT22;4203;48.144;14.118;2023-04-15T00:21:27;5.40;99.90
8332;DHT22;4203;48.144;14.118;2023-04-15T00:23:55;5.40;99.90
8332;DHT22;4203;48.144;14.118;2023-04-15T00:26:22;5.40;99.90
8332;DHT22;4203;48.144;14.118;2023-04-15T00:28:49;5.40;99.90
8332;DHT22;4203;48.144;14.118;2023-04-15T00:31:16;5.40;99.90
8332;DHT22;4203;48.144;14.118;2023-04-15T00:33:43;5.40;99.90
8332;DHT22;4203;48.144;14.118;2023-04-15T00:36:10;5.40;99.90
8332;DHT22;4203;48.144;14.118;2023-04-15T00:38:39;5.40;99.90
8332;DHT22;4203;48.144;14.118;2023-04-15T00:41:07;5.40;99.90
8332;DHT22;4203;48.144;14.118;2023-04-15T00:43:34;5.40;99.90
8332;DHT22;4203;48.144;14.118;2023-04-15T00:46:03;5.40;99.90
8332;DHT22;4203;48.144;14.118;2023-04-15T00:48:30;5.30;99.90
8332;DHT22;4203;48.144;14.118;2023-04-15T00:50:58;5.40;99.90
8332;DHT22;4203;48.144;14.118;2023-04-15T00:53:25;5.40;99.90
8332;DHT22;4203;48.144;14.118;2023-04-15T00:55:54;5.30;99.90
8332;DHT22;4203;48.144;14.118;2023-04-15T00:58:22;5.30;99.90
8332;DHT22;4203;48.144;14.118;2023-04-15T01:00:50;5.30;99.90
8332;DHT22;4203;48.144;14.118;2023-04-15T01:03:19;5.30;99.90
8332;DHT22;4203;48.144;14.118;2023-04-15T01:05:46;5.30;99.90
8332;DHT22;4203;48.144;14.118;2023-04-15T01:08:13;5.30;99.90
8332;DHT22;4203;48.144;14.118;2023-04-15T01:10:41;5.30;99.90
8332;DHT22;4203;48.144;14.118;2023-04-15T01:13:10;5.30;99.90
8332;DHT22;4203;48.144;14.118;2023-04-15T01:15:37;5.30;99.90
8332;DHT22;4203;48.144;14.118;2023-04-15T01:18:04;5.20;99.90
8332;DHT22;4203;48.144;14.118;2023-04-15T01:20:33;5.20;99.90
8332;DHT22;4203;48.144;14.118;2023-04-15T01:23:01;5.20;99.90
8332;DHT22;4203;48.144;14.118;2023-04-15T01:25:32;5.20;99.90
8332;DHT22;4203;48.144;14.118;2023-04-15T01:28:00;5.20;99.90
8332;DHT22;4203;48.144;14.118;2023-04-15T01:30:28;5.20;99.90
8332;DHT22;4203;48.144;14.118;2023-04-15T01:32:55;5.20;99.90
8332;DHT22;4203;48.144;14.118;2023-04-15T01:35:22;5.30;99.90
8332;DHT22;4203;48.144;14.118;2023-04-15T01:37:49;5.20;99.90
8332;DHT22;4203;48.144;14.118;2023-04-15T01:40:17;5.20;99.90
8332;DHT22;4203;48.144;14.118;2023-04-15T01:42:45;5.20;99.90
8332;DHT22;4203;48.144;14.118;2023-04-15T01:45:13;5.20;99.90
8332;DHT22;4203;48.144;14.118;2023-04-15T01:47:40;5.20;99.90
8332;DHT22;4203;48.144;14.118;2023-04-15T01:50:07;5.20;99.90
8332;DHT22;4203;48.144;14.118;2023-04-15T01:52:35;5.20;99.90
8332;DHT22;4203;48.144;14.118;2023-04-15T01:55:02;5.20;99.90
8332;DHT22;4203;48.144;14.118;2023-04-15T01:57:29;5.20;99.90
8332;DHT22;4203;48.144;14.118;2023-04-15T01:59:58;5.20;99.90
8332;DHT22;4203;48.144;14.118;2023-04-15T02:02:25;5.20;99.90
8332;DHT22;4203;48.144;14.118;2023-04-15T02:04:52;5.20;99.90
8332;DHT22;4203;48.144;14.118;2023-04-15T02:07:20;5.20;99.90
8332;DHT22;4203;48.144;14.118;2023-04-15T02:09:47;5.10;99.90
8332;DHT22;4203;48.144;14.118;2023-04-15T02:12:14;5.10;99.90
8332;DHT22;4203;48.144;14.118;2023-04-15T02:14:41;5.10;99.90
8332;DHT22;4203;48.144;14.118;2023-04-15T02:17:10;5.10;99.90
8332;DHT22;4203;48.144;14.118;2023-04-15T02:19:37;5.10;99.90
8332;DHT22;4203;48.144;14.118;2023-04-15T02:22:05;5.10;99.90
8332;DHT22;4203;48.144;14.118;2023-04-15T02:24:34;5.10;99.90
8332;DHT22;4203;48.144;14.118;2023-04-15T02:27:01;5.10;99.90
8332;DHT22;4203;48.144;14.118;2023-04-15T02:29:30;5.20;99.90
8332;DHT22;4203;48.144;14.118;2023-04-15T02:31:58;5.10;99.90
8332;DHT22;4203;48.144;14.118;2023-04-15T02:34:27;5.10;99.90
8332;DHT22;4203;48.144;14.118;2023-04-15T02:36:54;5.10;99.90
8332;DHT22;4203;48.144;14.118;2023-04-15T02:39:22;5.10;99.90
8332;DHT22;4203;48.144;14.118;2023-04-15T02:41:50;5.10;99.90
8332;DHT22;4203;48.144;14.118;2023-04-15T02:44:18;5.10;99.90
8332;DHT22;4203;48.144;14.118;2023-04-15T02:46:45;5.20;99.90
8332;DHT22;4203;48.144;14.118;2023-04-15T02:49:15;5.10;99.90
8332;DHT22;4203;48.144;14.118;2023-04-15T02:51:44;5.20;99.90
8332;DHT22;4203;48.144;14.118;2023-04-15T02:54:14;5.10;99.90
8332;DHT22;4203;48.144;14.118;2023-04-15T02:56:41;5.10;99.90
8332;DHT22;4203;48.144;14.118;2023-04-15T02:59:08;5.10;99.90
8332;DHT22;4203;48.144;14.118;2023-04-15T03:01:36;5.10;99.90
8332;DHT22;4203;48.144;14.118;2023-04-15T03:04:03;5.00;99.90
8332;DHT22;4203;48.144;14.118;2023-04-15T03:06:30;4.90;99.90
8332;DHT22;4203;48.144;14.118;2023-04-15T03:08:59;4.90;99.90
8332;DHT22;4203;48.144;14.118;2023-04-15T03:11:27;4.90;99.90
8332;DHT22;4203;48.144;14.118;2023-04-15T03:13:54;4.90;99.90
8332;DHT22;4203;48.144;14.118;2023-04-15T03:16:21;4.80;99.90
8332;DHT22;4203;48.144;14.118;2023-04-15T03:18:49;4.90;99.90
8332;DHT22;4203;48.144;14.118;2023-04-15T03:21:16;4.80;99.90
8332;DHT22;4203;48.144;14.118;2023-04-15T03:23:44;4.90;99.90
8332;DHT22;4203;48.144;14.118;2023-04-15T03:26:25;4.90;99.90
8332;DHT22;4203;48.144;14.118;2023-04-15T03:28:53;4.90;99.90
8332;DHT22;4203;48.144;14.118;2023-04-15T03:31:20;4.90;99.90
8332;DHT22;4203;48.144;14.118;2023-04-15T03:33:47;4.90;99.90
8332;DHT22;4203;48.144;14.118;2023-04-15T03:36:15;4.90;99.90
8332;DHT22;4203;48.144;14.118;2023-04-15T03:38:42;4.90;99.90
8332;DHT22;4203;48.144;14.118;2023-04-15T03:41:10;4.90;99.90
8332;DHT22;4203;48.144;14.118;2023-04-15T03:43:39;5.00;99.90
8332;DHT22;4203;48.144;14.118;2023-04-15T03:46:06;4.90;99.90
8332;DHT22;4203;48.144;14.118;2023-04-15T03:48:33;4.90;99.90
8332;DHT22;4203;48.144;14.118;2023-04-15T03:51:00;4.90;99.90
8332;DHT22;4203;48.144;14.118;2023-04-15T03:53:28;4.90;99.90
8332;DHT22;4203;48.144;14.118;2023-04-15T03:55:55;4.90;99.90
8332;DHT22;4203;48.144;14.118;2023-04-15T03:58:22;4.90;99.90
8332;DHT22;4203;48.144;14.118;2023-04-15T04:00:50;4.90;99.90
8332;DHT22;4203;48.144;14.118;2023-04-15T04:03:18;4.80;99.90
8332;DHT22;4203;48.144;14.118;2023-04-15T04:05:45;4.80;99.90
8332;DHT22;4203;48.144;14.118;2023-04-15T04:08:12;4.80;99.90
8332;DHT22;4203;48.144;14.118;2023-04-15T04:10:42;4.80;99.90
8332;DHT22;4203;48.144;14.118;2023-04-15T04:13:09;4.80;99.90
8332;DHT22;4203;48.144;14.118;2023-04-15T04:15:36;4.70;99.90
8332;DHT22;4203;48.144;14.118;2023-04-15T04:18:04;4.80;99.90
8332;DHT22;4203;48.144;14.118;2023-04-15T04:20:32;4.70;99.90
8332;DHT22;4203;48.144;14.118;2023-04-15T04:22:59;4.80;99.90
8332;DHT22;4203;48.144;14.118;2023-04-15T04:25:27;4.70;99.90
8332;DHT22;4203;48.144;14.118;2023-04-15T04:27:54;4.70;99.90
8332;DHT22;4203;48.144;14.118;2023-04-15T04:30:21;4.70;99.90
8332;DHT22;4203;48.144;14.118;2023-04-15T04:32:49;4.70;99.90
8332;DHT22;4203;48.144;14.118;2023-04-15T04:35:18;4.70;99.90
8332;DHT22;4203;48.144;14.118;2023-04-15T04:37:45;4.60;99.90
8332;DHT22;4203;48.144;14.118;2023-04-15T04:40:12;4.70;99.90
8332;DHT22;4203;48.144;14.118;2023-04-15T04:42:39;4.60;99.90
8332;DHT22;4203;48.144;14.118;2023-04-15T04:45:07;4.60;99.90
8332;DHT22;4203;48.144;14.118;2023-04-15T04:47:34;4.60;99.90
8332;DHT22;4203;48.144;14.118;2023-04-15T04:50:02;4.50;99.90
8332;DHT22;4203;48.144;14.118;2023-04-15T04:52:31;4.50;99.90
8332;DHT22;4203;48.144;14.118;2023-04-15T04:54:58;4.50;99.90
8332;DHT22;4203;48.144;14.118;2023-04-15T04:57:25;4.50;99.90
8332;DHT22;4203;48.144;14.118;2023-04-15T04:59:52;4.60;99.90
8332;DHT22;4203;48.144;14.118;2023-04-15T05:02:19;4.60;99.90
8332;DHT22;4203;48.144;14.118;2023-04-15T05:04:46;4.60;99.90
8332;DHT22;4203;48.144;14.118;2023-04-15T05:07:14;4.60;99.90
8332;DHT22;4203;48.144;14.118;2023-04-15T05:09:43;4.60;99.90
8332;DHT22;4203;48.144;14.118;2023-04-15T05:12:10;4.60;99.90
8332;DHT22;4203;48.144;14.118;2023-04-15T05:14:39;4.60;99.90
8332;DHT22;4203;48.144;14.118;2023-04-15T05:17:07;4.70;99.90
8332;DHT22;4203;48.144;14.118;2023-04-15T05:19:34;4.80;99.90
8332;DHT22;4203;48.144;14.118;2023-04-15T05:22:01;4.80;99.90
8332;DHT22;4203;48.144;14.118;2023-04-15T05:24:29;4.80;99.90
8332;DHT22;4203;48.144;14.118;2023-04-15T05:26:57;4.80;99.90
8332;DHT22;4203;48.144;14.118;2023-04-15T05:29:26;4.80;99.90
8332;DHT22;4203;48.144;14.118;2023-04-15T05:31:53;4.90;99.90
8332;DHT22;4203;48.144;14.118;2023-04-15T05:34:21;4.90;99.90
8332;DHT22;4203;48.144;14.118;2023-04-15T05:36:48;4.90;99.90
8332;DHT22;4203;48.144;14.118;2023-04-15T05:39:15;4.90;99.90
8332;DHT22;4203;48.144;14.118;2023-04-15T05:41:43;4.90;99.90
8332;DHT22;4203;48.144;14.118;2023-04-15T05:44:11;5.00;99.90
8332;DHT22;4203;48.144;14.118;2023-04-15T05:46:38;5.00;99.90
8332;DHT22;4203;48.144;14.118;2023-04-15T05:49:06;5.00;99.90
8332;DHT22;4203;48.144;14.118;2023-04-15T05:51:33;5.00;99.90
8332;DHT22;4203;48.144;14.118;2023-04-15T05:54:00;5.00;99.90
8332;DHT22;4203;48.144;14.118;2023-04-15T05:56:27;5.00;99.90
8332;DHT22;4203;48.144;14.118;2023-04-15T05:58:55;5.00;99.90
8332;DHT22;4203;48.144;14.118;2023-04-15T06:01:24;5.00;99.90
8332;DHT22;4203;48.144;14.118;2023-04-15T06:03:51;5.00;99.90
8332;DHT22;4203;48.144;14.118;2023-04-15T06:06:19;5.00;99.90
8332;DHT22;4203;48.144;14.118;2023-04-15T06:08:46;5.00;99.90
8332;DHT22;4203;48.144;14.118;2023-04-15T06:11:14;5.00;99.90
8332;DHT22;4203;48.144;14.118;2023-04-15T06:13:41;5.00;99.90
8332;DHT22;4203;48.144;14.118;2023-04-15T06:16:08;5.00;99.90
8332;DHT22;4203;48.144;14.118;2023-04-15T06:18:38;5.10;99.90
8332;DHT22;4203;48.144;14.118;2023-04-15T06:21:05;5.10;99.90
8332;DHT22;4203;48.144;14.118;2023-04-15T06:23:33;5.10;99.90
8332;DHT22;4203;48.144;14.118;2023-04-15T06:26:01;5.10;99.90
8332;DHT22;4203;48.144;14.118;2023-04-15T06:28:28;5.10;99.90
8332;DHT22;4203;48.144;14.118;2023-04-15T06:30:55;5.10;99.90
8332;DHT22;4203;48.144;14.118;2023-04-15T06:33:22;5.20;99.90
8332;DHT22;4203;48.144;14.118;2023-04-15T06:35:51;5.10;99.90
8332;DHT22;4203;48.144;14.118;2023-04-15T06:38:18;5.10;99.90
8332;DHT22;4203;48.144;14.118;2023-04-15T06:40:45;5.10;99.90
8332;DHT22;4203;48.144;14.118;2023-04-15T06:43:12;5.10;99.90
8332;DHT22;4203;48.144;14.118;2023-04-15T06:45:39;5.20;99.90
8332;DHT22;4203;48.144;14.118;2023-04-15T06:48:07;5.10;99.90
8332;DHT22;4203;48.144;14.118;2023-04-15T06:50:34;5.10;99.90
8332;DHT22;4203;48.144;14.118;2023-04-15T06:53:03;5.20;99.90
8332;DHT22;4203;48.144;14.118;2023-04-15T06:55:30;5.10;99.90
8332;DHT22;4203;48.144;14.118;2023-04-15T06:57:58;5.10;99.90
8332;DHT22;4203;48.144;14.118;2023-04-15T07:00:25;5.10;99.90
8332;DHT22;4203;48.144;14.118;2023-04-15T07:02:53;5.10;99.90
8332;DHT22;4203;48.144;14.118;2023-04-15T07:05:21;5.10;99.90
8332;DHT22;4203;48.144;14.118;2023-04-15T07:07:48;5.10;99.90
8332;DHT22;4203;48.144;14.118;2023-04-15T07:10:18;5.10;99.90
8332;DHT22;4203;48.144;14.118;2023-04-15T07:12:48;5.00;99.90
8332;DHT22;4203;48.144;14.118;2023-04-15T07:15:18;5.10;99.90
8332;DHT22;4203;48.144;14.118;2023-04-15T07:17:47;5.10;99.90
8332;DHT22;4203;48.144;14.118;2023-04-15T07:20:17;5.10;99.90
8332;DHT22;4203;48.144;14.118;2023-04-15T07:22:47;5.00;99.90
8332;DHT22;4203;48.144;14.118;2023-04-15T07:25:19;5.00;99.90
8332;DHT22;4203;48.144;14.118;2023-04-15T07:27:52;5.00;99.90
8332;DHT22;4203;48.144;14.118;2023-04-15T07:30:21;5.00;99.90
8332;DHT22;4203;48.144;14.118;2023-04-15T07:32:51;5.00;99.90
8332;DHT22;4203;48.144;14.118;2023-04-15T07:35:21;4.30;99.90
8332;DHT22;4203;48.144;14.118;2023-04-15T07:37:53;5.10;99.90
8332;DHT22;4203;48.144;14.118;2023-04-15T07:40:24;5.20;99.90
8332;DHT22;4203;48.144;14.118;2023-04-15T07:42:56;5.20;99.90
8332;DHT22;4203;48.144;14.118;2023-04-15T07:45:24;5.20;99.90
8332;DHT22;4203;48.144;14.118;2023-04-15T07:47:52;5.20;99.90
8332;DHT22;4203;48.144;14.118;2023-04-15T07:50:20;5.20;99.90
8332;DHT22;4203;48.144;14.118;2023-04-15T07:52:48;5.20;99.90
8332;DHT22;4203;48.144;14.118;2023-04-15T07:55:16;5.20;99.90
8332;DHT22;4203;48.144;14.118;2023-04-15T07:57:47;5.10;99.90
8332;DHT22;4203;48.144;14.118;2023-04-15T08:00:15;5.20;99.90
8332;DHT22;4203;48.144;14.118;2023-04-15T08:02:43;5.10;99.90
8332;DHT22;4203;48.144;14.118;2023-04-15T08:05:11;5.20;99.90
8332;DHT22;4203;48.144;14.118;2023-04-15T08:07:39;5.20;99.90
8332;DHT22;4203;48.144;14.118;2023-04-15T08:10:07;5.20;99.90
8332;DHT22;4203;48.144;14.118;2023-04-15T08:12:35;5.30;99.90
8332;DHT22;4203;48.144;14.118;2023-04-15T08:15:05;5.30;99.90
8332;DHT22;4203;48.144;14.118;2023-04-15T08:17:32;5.40;99.90
8332;DHT22;4203;48.144;14.118;2023-04-15T08:19:59;5.50;99.90
8332;DHT22;4203;48.144;14.118;2023-04-15T08:22:27;5.50;99.90
8332;DHT22;4203;48.144;14.118;2023-04-15T08:24:54;5.50;99.90
8332;DHT22;4203;48.144;14.118;2023-04-15T08:27:21;5.40;99.90
8332;DHT22;4203;48.144;14.118;2023-04-15T08:29:49;5.40;99.90
8332;DHT22;4203;48.144;14.118;2023-04-15T08:32:18;5.40;99.90
8332;DHT22;4203;48.144;14.118;2023-04-15T08:34:45;5.40;99.90
8332;DHT22;4203;48.144;14.118;2023-04-15T08:37:12;5.40;99.90
8332;DHT22;4203;48.144;14.118;2023-04-15T08:39:40;5.40;99.90
8332;DHT22;4203;48.144;14.118;2023-04-15T08:42:11;5.40;99.90
8332;DHT22;4203;48.144;14.118;2023-04-15T08:44:42;5.40;99.90
8332;DHT22;4203;48.144;14.118;2023-04-15T08:47:12;5.40;99.90
8332;DHT22;4203;48.144;14.118;2023-04-15T08:49:42;5.40;99.90
8332;DHT22;4203;48.144;14.118;2023-04-15T08:52:10;5.40;99.90
8332;DHT22;4203;48.144;14.118;2023-04-15T08:54:37;5.30;99.90
8332;DHT22;4203;48.144;14.118;2023-04-15T08:57:05;5.30;99.90
8332;DHT22;4203;48.144;14.118;2023-04-15T08:59:32;5.30;99.90
8332;DHT22;4203;48.144;14.118;2023-04-15T09:02:00;5.30;99.90
8332;DHT22;4203;48.144;14.118;2023-04-15T09:04:31;5.30;99.90
8332;DHT22;4203;48.144;14.118;2023-04-15T09:07:01;5.30;99.90
8332;DHT22;4203;48.144;14.118;2023-04-15T09:09:28;5.30;99.90
8332;DHT22;4203;48.144;14.118;2023-04-15T09:11:56;5.30;99.90
8332;DHT22;4203;48.144;14.118;2023-04-15T09:14:23;5.30;99.90
8332;DHT22;4203;48.144;14.118;2023-04-15T09:16:56;5.30;99.90
8332;DHT22;4203;48.144;14.118;2023-04-15T09:19:24;5.40;99.90
8332;DHT22;4203;48.144;14.118;2023-04-15T09:21:54;5.40;99.90
8332;DHT22;4203;48.144;14.118;2023-04-15T09:24:24;5.50;99.90
8332;DHT22;4203;48.144;14.118;2023-04-15T09:26:52;5.60;99.90
8332;DHT22;4203;48.144;14.118;2023-04-15T09:29:23;5.70;99.90
8332;DHT22;4203;48.144;14.118;2023-04-15T09:31:51;5.70;99.90
8332;DHT22;4203;48.144;14.118;2023-04-15T09:34:20;5.60;99.90
8332;DHT22;4203;48.144;14.118;2023-04-15T09:36:53;5.60;99.90
8332;DHT22;4203;48.144;14.118;2023-04-15T09:39:21;5.60;99.90
8332;DHT22;4203;48.144;14.118;2023-04-15T09:44:41;5.60;99.90
8332;DHT22;4203;48.144;14.118;2023-04-15T09:47:08;5.70;99.90
8332;DHT22;4203;48.144;14.118;2023-04-15T09:49:35;5.70;99.90
8332;DHT22;4203;48.144;14.118;2023-04-15T09:52:03;5.80;99.90
8332;DHT22;4203;48.144;14.118;2023-04-15T09:54:34;5.80;99.90
8332;DHT22;4203;48.144;14.118;2023-04-15T09:57:06;5.80;99.90
8332;DHT22;4203;48.144;14.118;2023-04-15T09:59:34;5.80;99.90
8332;DHT22;4203;48.144;14.118;2023-04-15T10:02:04;5.80;99.90
8332;DHT22;4203;48.144;14.118;2023-04-15T10:04:35;5.90;99.90
8332;DHT22;4203;48.144;14.118;2023-04-15T10:07:03;6.00;99.90
8332;DHT22;4203;48.144;14.118;2023-04-15T10:09:31;6.00;99.90
8332;DHT22;4203;48.144;14.118;2023-04-15T10:12:04;6.00;99.90
8332;DHT22;4203;48.144;14.118;2023-04-15T10:14:34;5.90;99.90
8332;DHT22;4203;48.144;14.118;2023-04-15T10:17:06;5.70;99.90
8332;DHT22;4203;48.144;14.118;2023-04-15T10:19:37;5.60;99.90
8332;DHT22;4203;48.144;14.118;2023-04-15T10:22:06;5.50;99.90
8332;DHT22;4203;48.144;14.118;2023-04-15T10:24:35;5.50;99.90
8332;DHT22;4203;48.144;14.118;2023-04-15T10:27:06;5.50;99.90
8332;DHT22;4203;48.144;14.118;2023-04-15T10:29:34;5.60;99.90
8332;DHT22;4203;48.144;14.118;2023-04-15T10:32:04;5.70;99.90
8332;DHT22;4203;48.144;14.118;2023-04-15T10:34:31;5.70;99.90
8332;DHT22;4203;48.144;14.118;2023-04-15T10:37:01;5.70;99.90
8332;DHT22;4203;48.144;14.118;2023-04-15T10:39:42;5.70;99.90
8332;DHT22;4203;48.144;14.118;2023-04-15T10:42:10;5.80;99.90
8332;DHT22;4203;48.144;14.118;2023-04-15T10:44:38;6.00;99.90
8332;DHT22;4203;48.144;14.118;2023-04-15T10:47:15;5.90;99.90
8332;DHT22;4203;48.144;14.118;2023-04-15T10:49:49;5.90;99.90
8332;DHT22;4203;48.144;14.118;2023-04-15T10:52:24;5.90;99.90
8332;DHT22;4203;48.144;14.118;2023-04-15T10:55:01;5.90;99.90
8332;DHT22;4203;48.144;14.118;2023-04-15T10:57:34;5.90;99.90
8332;DHT22;4203;48.144;14.118;2023-04-15T11:00:10;5.80;99.90
8332;DHT22;4203;48.144;14.118;2023-04-15T11:02:42;5.80;99.90
8332;DHT22;4203;48.144;14.118;2023-04-15T11:05:10;5.90;99.90
8332;DHT22;4203;48.144;14.118;2023-04-15T11:07:49;6.00;99.90
8332;DHT22;4203;48.144;14.118;2023-04-15T11:10:50;6.00;99.90
8332;DHT22;4203;48.144;14.118;2023-04-15T11:13:20;6.00;99.90
8332;DHT22;4203;48.144;14.118;2023-04-15T11:15:48;6.00;99.90
8332;DHT22;4203;48.144;14.118;2023-04-15T11:18:19;6.00;99.90
8332;DHT22;4203;48.144;14.118;2023-04-15T11:20:49;6.10;99.90
8332;DHT22;4203;48.144;14.118;2023-04-15T11:23:17;6.10;99.90
8332;DHT22;4203;48.144;14.118;2023-04-15T11:25:45;6.10;99.90
8332;DHT22;4203;48.144;14.118;2023-04-15T11:28:13;6.10;99.90
8332;DHT22;4203;48.144;14.118;2023-04-15T11:30:41;6.20;99.90
8332;DHT22;4203;48.144;14.118;2023-04-15T11:33:10;6.20;99.90
8332;DHT22;4203;48.144;14.118;2023-04-15T11:35:40;6.30;99.90
8332;DHT22;4203;48.144;14.118;2023-04-15T11:38:09;6.30;99.90
8332;DHT22;4203;48.144;14.118;2023-04-15T11:40:37;6.40;99.90
8332;DHT22;4203;48.144;14.118;2023-04-15T11:43:05;6.40;99.90
8332;DHT22;4203;48.144;14.118;2023-04-15T11:45:33;6.50;99.90
8332;DHT22;4203;48.144;14.118;2023-04-15T11:48:07;6.60;99.90
8332;DHT22;4203;48.144;14.118;2023-04-15T11:50:35;6.60;99.90
8332;DHT22;4203;48.144;14.118;2023-04-15T11:53:04;6.70;99.90
8332;DHT22;4203;48.144;14.118;2023-04-15T11:55:41;6.90;99.90
8332;DHT22;4203;48.144;14.118;2023-04-15T11:58:10;6.90;99.90
8332;DHT22;4203;48.144;14.118;2023-04-15T12:00:37;7.00;99.90
8332;DHT22;4203;48.144;14.118;2023-04-15T12:03:12;7.10;99.90
8332;DHT22;4203;48.144;14.118;2023-04-15T12:06:12;7.20;99.90
8332;DHT22;4203;48.144;14.118;2023-04-15T12:09:07;7.30;99.90
8332;DHT22;4203;48.144;14.118;2023-04-15T12:11:38;7.40;99.90
8332;DHT22;4203;48.144;14.118;2023-04-15T12:14:20;7.20;99.90
8332;DHT22;4203;48.144;14.118;2023-04-15T12:16:50;7.10;99.90
8332;DHT22;4203;48.144;14.118;2023-04-15T12:19:22;7.20;99.90
8332;DHT22;4203;48.144;14.118;2023-04-15T12:21:57;7.10;99.90
8332;DHT22;4203;48.144;14.118;2023-04-15T12:24:26;7.10;99.90
8332;DHT22;4203;48.144;14.118;2023-04-15T12:26:54;7.00;99.90
8332;DHT22;4203;48.144;14.118;2023-04-15T12:29:25;6.90;99.90
8332;DHT22;4203;48.144;14.118;2023-04-15T12:31:54;7.00;99.90
8332;DHT22;4203;48.144;14.118;2023-04-15T12:34:28;7.10;99.90
8332;DHT22;4203;48.144;14.118;2023-04-15T12:36:57;7.00;99.90
8332;DHT22;4203;48.144;14.118;2023-04-15T12:39:26;6.90;99.90
8332;DHT22;4203;48.144;14.118;2023-04-15T12:41:54;6.90;99.90
8332;DHT22;4203;48.144;14.118;2023-04-15T12:44:22;6.90;99.90
8332;DHT22;4203;48.144;14.118;2023-04-15T12:46:49;6.80;99.90
8332;DHT22;4203;48.144;14.118;2023-04-15T12:49:17;6.80;99.90
8332;DHT22;4203;48.144;14.118;2023-04-15T12:51:47;6.80;99.90
8332;DHT22;4203;48.144;14.118;2023-04-15T12:54:15;6.80;99.90
8332;DHT22;4203;48.144;14.118;2023-04-15T12:56:44;6.80;99.90
8332;DHT22;4203;48.144;14.118;2023-04-15T12:59:12;6.80;99.90
8332;DHT22;4203;48.144;14.118;2023-04-15T13:01:40;6.80;99.90
8332;DHT22;4203;48.144;14.118;2023-04-15T13:04:07;6.80;99.90
8332;DHT22;4203;48.144;14.118;2023-04-15T13:06:34;6.80;99.90
8332;DHT22;4203;48.144;14.118;2023-04-15T13:09:03;6.60;99.90
8332;DHT22;4203;48.144;14.118;2023-04-15T13:11:32;6.60;99.90
8332;DHT22;4203;48.144;14.118;2023-04-15T13:14:03;6.50;99.90
8332;DHT22;4203;48.144;14.118;2023-04-15T13:16:30;6.50;99.90
8332;DHT22;4203;48.144;14.118;2023-04-15T13:18:58;6.50;99.90
8332;DHT22;4203;48.144;14.118;2023-04-15T13:21:25;6.50;99.90
8332;DHT22;4203;48.144;14.118;2023-04-15T13:23:53;6.50;99.90
8332;DHT22;4203;48.144;14.118;2023-04-15T13:26:20;6.40;99.90
8332;DHT22;4203;48.144;14.118;2023-04-15T13:28:47;6.40;99.90
8332;DHT22;4203;48.144;14.118;2023-04-15T13:31:16;6.30;99.90
8332;DHT22;4203;48.144;14.118;2023-04-15T13:33:43;6.30;99.90
8332;DHT22;4203;48.144;14.118;2023-04-15T13:36:10;6.20;99.90
8332;DHT22;4203;48.144;14.118;2023-04-15T13:38:38;6.30;99.90
8332;DHT22;4203;48.144;14.118;2023-04-15T13:41:05;6.30;99.90
8332;DHT22;4203;48.144;14.118;2023-04-15T13:43:32;6.30;99.90
8332;DHT22;4203;48.144;14.118;2023-04-15T13:45:59;6.30;99.90
8332;DHT22;4203;48.144;14.118;2023-04-15T13:48:28;6.20;99.90
8332;DHT22;4203;48.144;14.118;2023-04-15T13:50:56;6.20;99.90
8332;DHT22;4203;48.144;14.118;2023-04-15T13:53:23;6.20;99.90
8332;DHT22;4203;48.144;14.118;2023-04-15T13:55:50;6.20;99.90
8332;DHT22;4203;48.144;14.118;2023-04-15T13:58:17;6.20;99.90
8332;DHT22;4203;48.144;14.118;2023-04-15T14:00:45;6.10;99.90
8332;DHT22;4203;48.144;14.118;2023-04-15T14:03:12;6.10;99.90
8332;DHT22;4203;48.144;14.118;2023-04-15T14:05:40;6.10;99.90
8332;DHT22;4203;48.144;14.118;2023-04-15T14:08:07;6.10;99.90
8332;DHT22;4203;48.144;14.118;2023-04-15T14:10:35;6.10;99.90
8332;DHT22;4203;48.144;14.118;2023-04-15T14:13:02;6.10;99.90
8332;DHT22;4203;48.144;14.118;2023-04-15T14:15:29;6.20;99.90
8332;DHT22;4203;48.144;14.118;2023-04-15T14:17:56;6.20;99.90
8332;DHT22;4203;48.144;14.118;2023-04-15T14:20:24;6.20;99.90
8332;DHT22;4203;48.144;14.118;2023-04-15T14:22:52;6.20;99.90
8332;DHT22;4203;48.144;14.118;2023-04-15T14:25:19;6.20;99.90
8332;DHT22;4203;48.144;14.118;2023-04-15T14:27:47;6.20;99.90
8332;DHT22;4203;48.144;14.118;2023-04-15T14:30:14;6.20;99.90
8332;DHT22;4203;48.144;14.118;2023-04-15T14:32:41;6.20;99.90
8332;DHT22;4203;48.144;14.118;2023-04-15T14:35:09;6.20;99.90
8332;DHT22;4203;48.144;14.118;2023-04-15T14:37:39;6.20;99.90
8332;DHT22;4203;48.144;14.118;2023-04-15T14:40:10;6.30;99.90
8332;DHT22;4203;48.144;14.118;2023-04-15T14:42:37;6.30;99.90
8332;DHT22;4203;48.144;14.118;2023-04-15T14:45:05;6.40;99.90
8332;DHT22;4203;48.144;14.118;2023-04-15T14:47:32;6.40;99.90
8332;DHT22;4203;48.144;14.118;2023-04-15T14:49:59;6.40;99.90
8332;DHT22;4203;48.144;14.118;2023-04-15T14:52:28;6.40;99.90
8332;DHT22;4203;48.144;14.118;2023-04-15T14:54:58;6.40;99.90
8332;DHT22;4203;48.144;14.118;2023-04-15T14:57:27;6.40;99.90
8332;DHT22;4203;48.144;14.118;2023-04-15T14:59:54;6.30;99.90
8332;DHT22;4203;48.144;14.118;2023-04-15T15:02:21;6.30;99.90
8332;DHT22;4203;48.144;14.118;2023-04-15T15:04:49;6.20;99.90
8332;DHT22;4203;48.144;14.118;2023-04-15T15:07:16;6.20;99.90
8332;DHT22;4203;48.144;14.118;2023-04-15T15:09:43;6.10;99.90
8332;DHT22;4203;48.144;14.118;2023-04-15T15:12:10;6.10;99.90
8332;DHT22;4203;48.144;14.118;2023-04-15T15:14:39;6.10;99.90
8332;DHT22;4203;48.144;14.118;2023-04-15T15:17:06;6.10;99.90
8332;DHT22;4203;48.144;14.118;2023-04-15T15:19:33;6.00;99.90
8332;DHT22;4203;48.144;14.118;2023-04-15T15:22:01;6.00;99.90
8332;DHT22;4203;48.144;14.118;2023-04-15T15:24:28;6.00;99.90
8332;DHT22;4203;48.144;14.118;2023-04-15T15:26:56;6.00;99.90
8332;DHT22;4203;48.144;14.118;2023-04-15T15:29:23;5.90;99.90
8332;DHT22;4203;48.144;14.118;2023-04-15T15:31:51;6.00;99.90
8332;DHT22;4203;48.144;14.118;2023-04-15T15:34:19;5.90;99.90
8332;DHT22;4203;48.144;14.118;2023-04-15T15:36:48;5.90;99.90
8332;DHT22;4203;48.144;14.118;2023-04-15T15:39:16;6.00;99.90
8332;DHT22;4203;48.144;14.118;2023-04-15T15:41:44;5.90;99.90
8332;DHT22;4203;48.144;14.118;2023-04-15T15:44:11;5.90;99.90
8332;DHT22;4203;48.144;14.118;2023-04-15T15:46:38;5.90;99.90
8332;DHT22;4203;48.144;14.118;2023-04-15T15:49:07;5.90;99.90
8332;DHT22;4203;48.144;14.118;2023-04-15T15:51:35;5.90;99.90
8332;DHT22;4203;48.144;14.118;2023-04-15T15:54:02;5.90;99.90
8332;DHT22;4203;48.144;14.118;2023-04-15T15:56:29;5.90;99.90
8332;DHT22;4203;48.144;14.118;2023-04-15T15:58:57;5.90;99.90
8332;DHT22;4203;48.144;14.118;2023-04-15T16:01:25;5.90;99.90
8332;DHT22;4203;48.144;14.118;2023-04-15T16:03:52;5.90;99.90
8332;DHT22;4203;48.144;14.118;2023-04-15T16:06:20;5.90;99.90
8332;DHT22;4203;48.144;14.118;2023-04-15T16:08:48;5.90;99.90
8332;DHT22;4203;48.144;14.118;2023-04-15T16:11:16;5.90;99.90
8332;DHT22;4203;48.144;14.118;2023-04-15T16:13:43;5.90;99.90